Time;durP1;ratioP1;P1;durP2;ratioP2;P2;SDS_P1;SDS_P2;PMS_P1;PMS_P2;Temp;Humidity;BMP_temperature;BMP_pressure;BME280_temperature;BME280_humidity;BME280_pressure;Samples;Min_cycle;Max_cycle;Signal;HPM_P1;HPM_P2
2024/03/04 00:00:40;;;;;;;57.73;25.77;;;7.10;1.00;;;;;;4432699;28;656626;-75
2024/03/04 00:03:28;;;;;;;57.00;26.90;;;7.00;99.90;;;;;;4395888;28;656801;-76
2024/03/04 00:06:17;;;;;;;53.60;25.53;;;6.90;1.00;;;;;;4412583;28;658997;-75
2024/03/04 00:09:08;;;;;;;47.60;24.43;;;6.90;1.00;;;;;;4391468;28;656593;-76
2024/03/04 00:11:57;;;;;;;52.57;23.57;;;6.90;1.00;;;;;;4376490;28;657214;-75
2024/03/04 00:14:44;;;;;;;50.10;24.57;;;6.80;99.90;;;;;;4393933;28;656358;-75
2024/03/04 00:17:31;;;;;;;49.80;23.63;;;6.60;1.00;;;;;;4412775;28;657271;-75
2024/03/04 00:20:19;;;;;;;51.33;24.57;;;6.50;1.00;;;;;;4399374;28;656486;-75
2024/03/04 00:23:06;;;;;;;47.77;23.70;;;6.50;81.10;;;;;;4424420;28;656878;-75
2024/03/04 00:25:53;;;;;;;50.90;24.57;;;6.40;99.90;;;;;;4404604;28;657850;-76
2024/03/04 00:28:42;;;;;;;47.70;22.63;;;6.30;1.00;;;;;;4421035;28;658585;-75
2024/03/04 00:31:30;;;;;;;48.37;23.37;;;6.30;1.00;;;;;;4401401;28;657749;-75
2024/03/04 00:34:17;;;;;;;47.67;23.47;;;6.10;1.00;;;;;;4401300;28;656706;-75
2024/03/04 00:37:05;;;;;;;54.60;23.50;;;6.10;1.00;;;;;;4415498;28;657983;-75
2024/03/04 00:39:52;;;;;;;52.37;24.77;;;6.10;99.90;;;;;;4399809;28;656348;-75
2024/03/04 00:42:40;;;;;;;54.70;27.07;;;6.00;99.90;;;;;;4405898;28;658344;-75
2024/03/04 00:45:29;;;;;;;53.97;25.53;;;6.10;99.90;;;;;;4414037;28;657669;-75
2024/03/04 00:48:17;;;;;;;45.40;21.52;;;6.10;99.90;;;;;;4410004;28;657488;-75
2024/03/04 00:51:05;;;;;;;51.03;25.90;;;6.00;99.90;;;;;;4402335;28;657794;-76
2024/03/04 00:53:52;;;;;;;47.87;22.53;;;6.10;99.90;;;;;;4393010;28;657790;-75
2024/03/04 00:56:40;;;;;;;46.97;23.07;;;6.00;99.90;;;;;;4407239;28;658319;-75
2024/03/04 00:59:28;;;;;;;48.57;23.17;;;6.00;99.90;;;;;;4407357;28;657650;-75
2024/03/04 01:02:16;;;;;;;56.13;23.43;;;5.90;48.20;;;;;;4380420;28;659021;-76
2024/03/04 01:05:04;;;;;;;50.17;23.47;;;5.90;99.90;;;;;;4387225;28;657848;-75
2024/03/04 01:07:51;;;;;;;45.60;22.27;;;5.80;99.90;;;;;;4394719;28;658012;-75
2024/03/04 01:10:38;;;;;;;46.03;21.90;;;5.70;99.90;;;;;;4373640;28;657853;-75
2024/03/04 01:13:26;;;;;;;47.83;23.30;;;5.60;99.90;;;;;;4400466;28;657968;-76
2024/03/04 01:16:13;;;;;;;45.33;23.03;;;5.60;1.00;;;;;;4383718;28;658060;-76
2024/03/04 01:19:01;;;;;;;41.57;20.30;;;5.50;1.00;;;;;;4401339;28;656415;-75
2024/03/04 01:21:49;;;;;;;45.07;21.67;;;5.40;1.00;;;;;;4385643;28;656610;-75
2024/03/04 01:24:36;;;;;;;45.00;21.10;;;5.40;1.00;;;;;;4403631;28;656883;-75
2024/03/04 01:27:23;;;;;;;42.43;20.97;;;5.40;4.00;;;;;;4386074;28;656890;-75
2024/03/04 01:30:13;;;;;;;44.33;21.90;;;5.50;99.90;;;;;;4408704;28;656810;-75
2024/03/04 01:33:03;;;;;;;47.67;21.70;;;5.60;29.40;;;;;;4378343;28;657894;-75
2024/03/04 01:35:51;;;;;;;50.57;25.47;;;5.60;62.90;;;;;;4370912;28;657818;-75
2024/03/04 01:38:38;;;;;;;43.63;22.87;;;5.90;99.90;;;;;;4371132;28;657476;-75
2024/03/04 01:41:27;;;;;;;47.27;23.87;;;6.00;54.30;;;;;;4406891;28;657958;-75
2024/03/04 01:44:14;;;;;;;42.40;22.07;;;5.90;1.00;;;;;;4373347;28;658626;-76
2024/03/04 01:47:02;;;;;;;47.00;22.20;;;6.00;1.00;;;;;;4413408;28;657239;-76
2024/03/04 01:49:50;;;;;;;46.45;23.90;;;5.90;1.00;;;;;;4379772;28;656934;-75
2024/03/04 01:52:40;;;;;;;51.83;24.67;;;5.90;99.90;;;;;;4409195;28;655683;-75
2024/03/04 01:55:28;;;;;;;46.40;22.40;;;5.90;99.90;;;;;;4380850;28;657462;-76
2024/03/04 01:58:15;;;;;;;42.67;21.70;;;5.90;99.90;;;;;;4421975;28;658908;-75
2024/03/04 02:01:05;;;;;;;52.60;26.20;;;5.90;99.90;;;;;;4407346;28;658497;-74
2024/03/04 02:03:53;;;;;;;45.40;24.23;;;5.90;99.90;;;;;;4428484;28;657239;-75
2024/03/04 02:06:40;;;;;;;47.83;24.37;;;5.90;34.70;;;;;;4396522;28;657881;-75
2024/03/04 02:09:29;;;;;;;44.07;22.17;;;5.90;1.00;;;;;;4399029;28;657872;-75
2024/03/04 02:12:17;;;;;;;42.70;21.80;;;6.00;1.00;;;;;;4428198;28;656888;-75
2024/03/04 02:15:05;;;;;;;42.07;21.27;;;6.00;1.00;;;;;;4395797;28;657520;-75
2024/03/04 02:17:52;;;;;;;46.00;22.47;;;6.00;1.00;;;;;;4417055;28;656843;-76
2024/03/04 02:20:41;;;;;;;44.70;22.20;;;6.00;1.00;;;;;;4434474;28;656916;-75
2024/03/04 02:23:30;;;;;;;44.90;22.13;;;6.10;1.00;;;;;;4408450;28;656661;-76
2024/03/04 02:26:17;;;;;;;42.80;22.10;;;6.10;99.90;;;;;;4428686;28;657165;-76
2024/03/04 02:29:05;;;;;;;50.40;22.57;;;6.10;99.90;;;;;;4400227;28;658102;-76
2024/03/04 02:31:52;;;;;;;44.33;22.93;;;6.10;99.90;;;;;;4431810;28;657721;-76
2024/03/04 02:34:39;;;;;;;47.77;22.77;;;6.00;99.90;;;;;;4404311;28;658812;-76
2024/03/04 02:37:27;;;;;;;44.57;23.13;;;6.00;99.90;;;;;;4432391;28;657847;-76
2024/03/04 02:40:15;;;;;;;53.33;23.97;;;6.00;99.90;;;;;;4400235;28;657414;-76
2024/03/04 02:43:03;;;;;;;52.03;24.43;;;6.00;99.90;;;;;;4401320;28;658337;-75
2024/03/04 02:45:51;;;;;;;46.00;23.37;;;6.10;1.00;;;;;;4422836;28;658087;-76
2024/03/04 02:48:38;;;;;;;49.37;24.50;;;6.10;1.00;;;;;;4404461;28;656891;-76
2024/03/04 02:51:25;;;;;;;54.05;24.98;;;6.10;99.90;;;;;;4417245;28;656271;-76
2024/03/04 02:54:13;;;;;;;53.23;24.67;;;6.10;99.90;;;;;;4377729;28;657518;-76
2024/03/04 02:57:01;;;;;;;56.70;26.27;;;6.00;99.90;;;;;;4400058;28;658472;-76
2024/03/04 02:59:48;;;;;;;54.58;26.90;;;6.00;99.90;;;;;;4419139;28;657718;-75
2024/03/04 03:02:36;;;;;;;52.93;25.77;;;6.00;99.90;;;;;;4431605;28;657632;-76
2024/03/04 03:05:23;;;;;;;59.73;27.77;;;6.00;99.90;;;;;;4406367;28;657583;-76
2024/03/04 03:08:10;;;;;;;57.93;28.20;;;5.90;99.90;;;;;;4420870;28;657541;-76
2024/03/04 03:10:58;;;;;;;59.50;28.63;;;5.90;1.00;;;;;;4411553;28;657731;-77
2024/03/04 03:13:47;;;;;;;59.47;29.63;;;5.90;1.00;;;;;;4329055;28;656059;-76
2024/03/04 03:16:34;;;;;;;66.77;31.03;;;5.90;1.00;;;;;;4318176;28;656375;-76
2024/03/04 03:19:22;;;;;;;66.87;31.37;;;5.90;1.00;;;;;;4337646;28;656528;-76
2024/03/04 03:22:10;;;;;;;63.63;29.37;;;5.80;1.00;;;;;;4355432;28;656551;-76
2024/03/04 03:24:57;;;;;;;66.37;30.23;;;5.80;1.00;;;;;;4430521;28;656461;-76
2024/03/04 03:27:45;;;;;;;70.27;31.83;;;5.80;1.00;;;;;;4419745;28;657846;-76
2024/03/04 03:30:34;;;;;;;65.37;30.13;;;5.70;14.70;;;;;;4418902;28;656816;-76
2024/03/04 03:33:21;;;;;;;70.00;32.07;;;5.70;99.90;;;;;;4425441;28;657058;-76
2024/03/04 03:36:09;;;;;;;66.03;31.42;;;5.70;99.90;;;;;;4402021;28;657924;-76
2024/03/04 03:38:56;;;;;;;74.23;33.87;;;5.70;99.90;;;;;;4426924;28;658031;-76
2024/03/04 03:41:44;;;;;;;74.10;35.13;;;5.70;99.90;;;;;;4404285;28;658260;-76
2024/03/04 03:44:31;;;;;;;75.40;33.90;;;5.70;99.90;;;;;;4434825;28;657625;-76
2024/03/04 03:47:20;;;;;;;75.35;34.08;;;5.60;99.90;;;;;;4400770;28;657954;-76
2024/03/04 03:50:08;;;;;;;79.67;34.60;;;5.60;1.00;;;;;;4413019;28;658077;-76
2024/03/04 03:52:56;;;;;;;78.63;35.17;;;5.50;1.00;;;;;;4407081;28;656854;-76
2024/03/04 03:55:44;;;;;;;70.93;33.60;;;5.60;1.00;;;;;;4368095;28;657154;-75
2024/03/04 03:58:33;;;;;;;78.63;34.83;;;5.60;1.00;;;;;;4384808;28;656547;-76
2024/03/04 04:01:20;;;;;;;73.10;33.93;;;5.60;1.00;;;;;;4387661;28;657291;-76
2024/03/04 04:04:09;;;;;;;78.87;35.73;;;5.60;10.60;;;;;;4364774;28;656406;-76
2024/03/04 04:06:57;;;;;;;83.90;37.43;;;5.60;99.90;;;;;;4391620;28;658451;-76
2024/03/04 04:09:44;;;;;;;82.53;37.93;;;5.50;99.90;;;;;;4378160;28;659378;-76
2024/03/04 04:12:31;;;;;;;88.13;38.17;;;5.50;99.90;;;;;;4412116;28;657917;-76
2024/03/04 04:15:19;;;;;;;81.43;36.17;;;5.50;99.90;;;;;;4379027;28;657573;-77
2024/03/04 04:18:06;;;;;;;80.57;37.20;;;5.50;99.90;;;;;;4407457;28;657504;-76
2024/03/04 04:20:55;;;;;;;78.77;36.77;;;5.40;99.90;;;;;;4371279;28;657794;-76
2024/03/04 04:23:43;;;;;;;78.28;36.83;;;5.40;99.90;;;;;;4393299;28;657845;-76
2024/03/04 04:26:31;;;;;;;79.30;36.13;;;5.30;99.90;;;;;;4406051;28;658207;-76
2024/03/04 04:29:18;;;;;;;82.07;36.63;;;5.30;99.90;;;;;;4391797;28;658352;-76
2024/03/04 04:32:06;;;;;;;78.30;35.70;;;5.30;1.00;;;;;;4395297;28;658340;-76
2024/03/04 04:34:53;;;;;;;79.33;35.83;;;5.20;1.00;;;;;;4391550;28;657012;-76
2024/03/04 04:37:43;;;;;;;77.03;34.23;;;5.20;1.00;;;;;;4394556;28;656624;-76
2024/03/04 04:40:31;;;;;;;72.47;33.30;;;5.20;1.00;;;;;;4365412;28;658084;-76
2024/03/04 04:43:20;;;;;;;75.82;33.65;;;5.20;1.00;;;;;;4389458;28;657371;-76
2024/03/04 04:46:07;;;;;;;69.95;32.05;;;5.20;1.00;;;;;;4394069;28;656264;-76
2024/03/04 04:48:55;;;;;;;66.20;32.27;;;5.20;1.00;;;;;;4400725;28;658062;-76
2024/03/04 04:51:42;;;;;;;69.43;32.67;;;5.20;1.00;;;;;;4397657;28;656675;-76
2024/03/04 04:54:31;;;;;;;63.73;30.93;;;5.20;1.00;;;;;;4413168;28;657002;-76
2024/03/04 04:57:19;;;;;;;72.17;31.33;;;5.30;1.00;;;;;;4389928;28;657010;-76
2024/03/04 05:00:12;;;;;;;70.23;31.40;;;5.20;1.00;;;;;;4429050;28;656462;-76
2024/03/04 05:02:59;;;;;;;64.50;31.93;;;5.20;1.00;;;;;;4378231;28;657310;-75
2024/03/04 05:05:46;;;;;;;68.90;32.53;;;5.20;1.00;;;;;;4407760;28;656768;-75
2024/03/04 05:08:33;;;;;;;66.33;30.83;;;5.20;1.00;;;;;;4395213;28;657728;-75
2024/03/04 05:11:23;;;;;;;66.03;30.87;;;5.20;1.00;;;;;;4426816;28;657489;-76
2024/03/04 05:14:11;;;;;;;66.10;30.97;;;5.20;99.90;;;;;;4399560;28;656887;-76
2024/03/04 05:16:58;;;;;;;64.87;31.47;;;5.20;99.90;;;;;;4391596;28;657691;-76
2024/03/04 05:19:45;;;;;;;62.50;30.13;;;5.20;99.90;;;;;;4409726;28;658018;-76
2024/03/04 05:22:33;;;;;;;59.67;28.83;;;5.30;99.90;;;;;;4383928;28;657714;-76
2024/03/04 05:25:20;;;;;;;72.33;31.53;;;5.30;99.90;;;;;;4395039;28;658736;-75
2024/03/04 05:28:09;;;;;;;60.47;30.50;;;5.40;98.80;;;;;;4390274;28;658031;-75
2024/03/04 05:30:57;;;;;;;64.10;31.67;;;5.30;99.90;;;;;;4404336;28;657865;-76
2024/03/04 05:33:46;;;;;;;66.47;31.67;;;5.30;99.90;;;;;;4382874;28;658160;-76
2024/03/04 05:36:34;;;;;;;62.80;29.30;;;5.40;99.90;;;;;;4390555;28;657718;-76
2024/03/04 05:39:21;;;;;;;62.90;28.80;;;5.30;12.20;;;;;;4412705;28;658329;-76
2024/03/04 05:42:09;;;;;;;57.23;28.77;;;5.30;30.40;;;;;;4404183;28;657266;-76
2024/03/04 05:44:58;;;;;;;59.13;29.27;;;5.30;24.30;;;;;;4413744;28;657264;-75
2024/03/04 05:47:45;;;;;;;60.63;28.67;;;5.40;1.00;;;;;;4382870;28;658448;-75
2024/03/04 05:50:32;;;;;;;53.37;26.93;;;5.30;1.00;;;;;;4400449;28;656214;-76
2024/03/04 05:53:20;;;;;;;57.10;26.40;;;5.30;1.00;;;;;;4407410;28;657014;-75
2024/03/04 05:56:08;;;;;;;57.90;27.37;;;5.40;1.00;;;;;;4395135;28;656763;-76
2024/03/04 05:58:55;;;;;;;53.50;26.77;;;5.40;1.00;;;;;;4408425;28;656744;-76
2024/03/04 06:01:45;;;;;;;52.30;25.93;;;5.50;1.00;;;;;;4384890;28;656500;-75
2024/03/04 06:04:33;;;;;;;53.87;26.43;;;5.60;1.00;;;;;;4395134;28;656743;-75
2024/03/04 06:07:20;;;;;;;55.77;25.70;;;5.70;99.90;;;;;;4402621;28;657676;-75
2024/03/04 06:10:08;;;;;;;54.53;26.50;;;5.70;99.90;;;;;;4392698;28;657773;-76
2024/03/04 06:12:56;;;;;;;59.22;26.13;;;5.80;99.90;;;;;;4408520;28;658673;-76
2024/03/04 06:15:43;;;;;;;58.60;27.13;;;5.90;80.10;;;;;;4387752;28;657573;-75
2024/03/04 06:18:31;;;;;;;56.33;26.97;;;6.10;1.00;;;;;;4386315;28;658498;-76
2024/03/04 06:21:19;;;;;;;52.80;26.30;;;6.20;99.90;;;;;;4380853;28;656384;-75
2024/03/04 06:24:06;;;;;;;50.70;25.83;;;6.20;99.90;;;;;;4400050;28;658236;-76
2024/03/04 06:26:53;;;;;;;52.15;25.73;;;6.30;99.90;;;;;;4376863;28;658204;-74
2024/03/04 06:29:41;;;;;;;53.43;25.63;;;6.50;1.00;;;;;;4413594;28;657908;-74
2024/03/04 06:32:28;;;;;;;50.30;24.47;;;6.60;1.00;;;;;;4383157;28;656208;-75
2024/03/04 06:35:17;;;;;;;47.57;24.30;;;6.70;1.00;;;;;;4411779;28;656813;-75
2024/03/04 06:38:05;;;;;;;50.10;23.83;;;6.80;99.90;;;;;;4386961;28;657384;-75
2024/03/04 06:40:53;;;;;;;48.60;23.97;;;6.90;92.60;;;;;;4403086;28;657828;-75
2024/03/04 06:43:40;;;;;;;50.00;23.50;;;7.10;1.00;;;;;;4406115;28;658164;-74
2024/03/04 06:46:29;;;;;;;47.20;22.97;;;7.30;99.90;;;;;;4383240;28;656870;-74
2024/03/04 06:49:17;;;;;;;61.70;25.53;;;7.40;99.90;;;;;;4409780;28;657190;-75
2024/03/04 06:52:06;;;;;;;70.60;30.33;;;7.50;99.90;;;;;;4387115;28;659064;-74
2024/03/04 06:54:53;;;;;;;90.20;36.97;;;7.60;99.90;;;;;;4409177;28;658038;-74
2024/03/04 06:57:40;;;;;;;51.37;27.10;;;7.70;1.00;;;;;;4428105;28;657604;-74
2024/03/04 07:00:27;;;;;;;45.83;24.60;;;7.80;99.90;;;;;;4407253;28;656976;-74
2024/03/04 07:03:15;;;;;;;50.67;26.03;;;7.90;99.90;;;;;;4425371;28;659126;-76
2024/03/04 07:06:03;;;;;;;54.73;27.17;;;8.00;99.90;;;;;;4423913;28;656866;-74
2024/03/04 07:08:51;;;;;;;48.57;23.13;;;8.10;94.00;;;;;;4422129;28;659086;-74
2024/03/04 07:11:38;;;;;;;46.17;23.67;;;8.20;1.00;;;;;;4406261;28;657760;-74
2024/03/04 07:14:26;;;;;;;46.17;22.43;;;8.40;1.00;;;;;;4428511;28;657831;-74
2024/03/04 07:17:13;;;;;;;60.50;29.10;;;8.50;1.00;;;;;;4407721;28;657298;-75
2024/03/04 07:20:00;;;;;;;49.40;23.47;;;8.60;1.00;;;;;;4430066;28;657204;-74
2024/03/04 07:22:47;;;;;;;53.43;25.43;;;8.70;99.90;;;;;;4412388;28;656638;-75
2024/03/04 07:25:36;;;;;;;46.20;23.27;;;8.90;99.90;;;;;;4419339;28;658578;-75
2024/03/04 07:28:23;;;;;;;53.90;25.77;;;9.00;1.00;;;;;;4399448;28;658065;-75
2024/03/04 07:31:11;;;;;;;48.97;24.33;;;9.20;1.00;;;;;;4428407;28;657080;-75
2024/03/04 07:33:58;;;;;;;65.13;30.87;;;9.30;1.00;;;;;;4407395;28;656657;-75
2024/03/04 07:36:45;;;;;;;40.70;21.07;;;9.60;1.00;;;;;;4424686;28;657425;-74
2024/03/04 07:39:34;;;;;;;75.37;32.93;;;9.70;99.90;;;;;;4411298;28;656394;-75
2024/03/04 07:42:24;;;;;;;58.17;26.85;;;9.90;99.90;;;;;;4420208;28;658705;-75
2024/03/04 07:45:11;;;;;;;44.20;23.07;;;9.90;99.90;;;;;;4403916;28;657788;-75
2024/03/04 07:47:58;;;;;;;39.83;20.33;;;10.00;99.90;;;;;;4406955;28;657688;-75
2024/03/04 07:50:45;;;;;;;38.80;21.53;;;10.10;99.90;;;;;;4427425;28;659375;-75
2024/03/04 07:53:33;;;;;;;36.50;19.90;;;10.30;99.90;;;;;;4403251;28;658223;-75
2024/03/04 07:56:20;;;;;;;42.47;20.37;;;10.30;99.90;;;;;;4417590;28;659735;-75
2024/03/04 07:59:09;;;;;;;35.80;19.47;;;10.20;99.90;;;;;;4415160;28;658443;-74
2024/03/04 08:01:56;;;;;;;38.97;19.57;;;10.30;99.90;;;;;;4431418;28;659401;-75
2024/03/04 08:04:44;;;;;;;37.17;19.73;;;10.50;99.90;;;;;;4405194;28;659144;-75
2024/03/04 08:07:31;;;;;;;35.90;18.97;;;10.70;99.90;;;;;;4427222;28;658698;-75
2024/03/04 08:10:19;;;;;;;40.90;20.47;;;10.80;99.90;;;;;;4409667;28;659011;-75
2024/03/04 08:13:06;;;;;;;41.00;20.10;;;10.90;1.00;;;;;;4422371;28;659422;-75
2024/03/04 08:15:55;;;;;;;28.43;14.43;;;11.00;1.00;;;;;;4405251;28;657979;-75
2024/03/04 08:18:42;;;;;;;28.57;16.30;;;11.20;99.90;;;;;;4412610;28;658236;-75
2024/03/04 08:21:30;;;;;;;33.50;18.13;;;11.30;1.00;;;;;;4427509;28;659416;-75
2024/03/04 08:24:17;;;;;;;32.37;17.03;;;11.50;1.00;;;;;;4422463;28;657487;-75
2024/03/04 08:27:05;;;;;;;32.27;17.37;;;11.80;99.90;;;;;;4428248;28;658252;-75
2024/03/04 08:29:52;;;;;;;29.70;16.50;;;12.00;99.90;;;;;;4414347;28;658573;-75
2024/03/04 08:32:44;;;;;;;31.43;16.50;;;12.10;90.60;;;;;;4427339;28;659888;-75
2024/03/04 08:35:31;;;;;;;33.70;16.53;;;12.10;86.60;;;;;;4397902;28;659078;-74
2024/03/04 08:38:18;;;;;;;34.17;17.40;;;12.10;1.00;;;;;;4392700;28;658864;-75
2024/03/04 08:41:06;;;;;;;31.90;16.40;;;11.80;62.50;;;;;;4423107;28;658585;-74
2024/03/04 08:43:53;;;;;;;31.67;16.03;;;11.90;7.60;;;;;;4406428;28;658808;-74
2024/03/04 08:46:40;;;;;;;35.73;15.50;;;12.10;1.00;;;;;;4427989;28;659272;-74
2024/03/04 08:49:29;;;;;;;32.33;16.92;;;12.30;1.00;;;;;;4409403;28;657877;-74
2024/03/04 08:52:16;;;;;;;32.03;16.60;;;12.30;1.00;;;;;;4425497;28;657366;-75
2024/03/04 08:55:04;;;;;;;32.37;16.30;;;12.40;1.00;;;;;;4403148;28;658181;-74
2024/03/04 08:57:51;;;;;;;25.30;14.80;;;12.60;1.00;;;;;;4431675;28;657371;-74
2024/03/04 09:00:38;;;;;;;30.20;15.07;;;13.00;1.00;;;;;;4400168;28;658741;-75
2024/03/04 09:03:26;;;;;;;21.47;12.20;;;13.40;99.90;;;;;;4420092;28;658296;-74
2024/03/04 09:06:17;;;;;;;25.77;13.10;;;13.60;99.90;;;;;;4403224;28;659053;-75
2024/03/04 09:09:05;;;;;;;27.37;14.10;;;13.40;99.90;;;;;;4321771;28;659128;-75
2024/03/04 09:11:53;;;;;;;25.57;13.87;;;13.60;1.00;;;;;;4320219;28;658781;-75
2024/03/04 09:14:40;;;;;;;25.63;13.27;;;13.90;99.90;;;;;;4345211;28;657147;-75
2024/03/04 09:17:27;;;;;;;25.53;13.53;;;14.10;99.90;;;;;;4366239;28;658906;-75
2024/03/04 09:20:15;;;;;;;23.80;13.00;;;14.10;13.00;;;;;;4431181;28;659295;-74
2024/03/04 09:23:04;;;;;;;27.23;14.43;;;14.10;99.90;;;;;;4420296;28;658781;-75
2024/03/04 09:25:51;;;;;;;25.03;14.07;;;14.40;99.90;;;;;;4432031;28;658980;-75
2024/03/04 09:28:39;;;;;;;32.43;15.27;;;14.30;41.50;;;;;;4401850;28;658759;-74
2024/03/04 09:31:26;;;;;;;30.17;15.60;;;14.20;98.20;;;;;;4419273;28;658714;-74
2024/03/04 09:34:13;;;;;;;27.97;13.77;;;14.20;99.90;;;;;;4397061;28;658632;-75
2024/03/04 09:37:01;;;;;;;24.60;13.70;;;14.30;15.30;;;;;;4419955;28;659807;-75
2024/03/04 09:39:50;;;;;;;26.90;14.67;;;15.20;1.00;;;;;;4397652;28;659165;-75
2024/03/04 09:42:37;;;;;;;29.93;15.77;;;15.40;1.00;;;;;;4413777;28;657802;-75
2024/03/04 09:45:26;;;;;;;28.70;15.87;;;15.30;1.00;;;;;;4423808;28;658647;-74
2024/03/04 09:48:13;;;;;;;30.23;14.50;;;15.50;1.00;;;;;;4405772;28;657421;-75
2024/03/04 09:51:01;;;;;;;29.93;16.17;;;16.20;1.00;;;;;;4409174;28;657575;-75
2024/03/04 09:53:50;;;;;;;27.80;15.33;;;16.30;1.00;;;;;;4375690;28;657826;-75
2024/03/04 09:56:39;;;;;;;26.20;14.10;;;16.40;1.00;;;;;;4384777;28;658059;-75
2024/03/04 09:59:26;;;;;;;25.50;12.47;;;17.00;1.00;;;;;;4411682;28;657608;-74
2024/03/04 10:02:13;;;;;;;24.40;12.07;;;16.40;99.90;;;;;;4385180;28;658200;-75
2024/03/04 10:05:01;;;;;;;23.07;13.50;;;16.50;1.00;;;;;;4398412;28;659309;-74
2024/03/04 10:07:50;;;;;;;29.20;14.17;;;16.50;1.00;;;;;;4402609;28;657697;-75
2024/03/04 10:10:38;;;;;;;20.10;11.57;;;17.10;1.00;;;;;;4392087;28;658671;-75
2024/03/04 10:13:26;;;;;;;27.60;12.20;;;17.60;99.90;;;;;;4396830;28;659259;-74
2024/03/04 10:16:15;;;;;;;25.15;12.48;;;17.50;99.90;;;;;;4369864;28;658825;-75
2024/03/04 10:19:04;;;;;;;25.63;13.50;;;17.70;99.90;;;;;;4401877;28;658704;-75
2024/03/04 10:21:51;;;;;;;25.43;12.80;;;17.50;99.90;;;;;;4417005;28;658556;-75
2024/03/04 10:24:38;;;;;;;22.20;12.37;;;17.60;99.90;;;;;;4399011;28;658532;-75
2024/03/04 10:27:26;;;;;;;27.27;11.90;;;18.10;99.90;;;;;;4401523;28;658331;-74
2024/03/04 10:30:15;;;;;;;78.00;27.90;;;18.30;99.90;;;;;;4374660;28;658226;-76
2024/03/04 10:33:04;;;;;;;113.10;40.10;;;18.80;99.90;;;;;;4396169;28;658899;-75
2024/03/04 10:35:56;;;;;;;19.00;10.47;;;19.00;99.90;;;;;;4419746;28;660878;-74
2024/03/04 10:38:45;;;;;;;10.68;5.95;;;18.00;99.90;;;;;;4372776;28;659372;-75
2024/03/04 10:41:34;;;;;;;16.27;8.83;;;17.90;99.90;;;;;;4417509;28;657675;-75
2024/03/04 10:44:24;;;;;;;16.30;9.30;;;17.30;99.90;;;;;;4412275;28;658422;-74
2024/03/04 10:47:13;;;;;;;14.53;7.77;;;17.60;99.90;;;;;;4384030;28;657662;-74
2024/03/04 10:50:00;;;;;;;12.87;8.00;;;16.90;99.90;;;;;;4388993;28;657614;-74
2024/03/04 10:52:48;;;;;;;16.17;9.47;;;16.60;99.90;;;;;;4372199;28;657624;-75
2024/03/04 10:55:35;;;;;;;19.67;10.17;;;16.90;99.90;;;;;;4393569;28;659402;-74
2024/03/04 10:58:22;;;;;;;23.93;11.83;;;16.80;99.90;;;;;;4389516;28;658526;-75
2024/03/04 11:01:13;;;;;;;18.47;9.53;;;16.30;99.90;;;;;;4436138;28;659083;-74
2024/03/04 11:04:04;;;;;;;20.27;9.83;;;16.20;99.90;;;;;;4408892;28;658696;-75
2024/03/04 11:06:51;;;;;;;49.17;18.70;;;16.00;99.90;;;;;;4410444;28;658330;-74
2024/03/04 11:09:39;;;;;;;19.23;8.87;;;16.00;99.90;;;;;;4402745;28;658845;-75
2024/03/04 11:12:26;;;;;;;12.57;7.60;;;16.70;99.90;;;;;;4422190;28;657723;-75
2024/03/04 11:15:13;;;;;;;13.63;5.30;;;17.80;99.90;;;;;;4407546;28;657337;-74
2024/03/04 11:18:02;;;;;;;16.47;7.53;;;17.00;99.90;;;;;;4427892;28;656981;-74
2024/03/04 11:20:51;;;;;;;11.03;6.30;;;17.00;99.90;;;;;;4415290;28;659064;-75
2024/03/04 11:23:38;;;;;;;12.83;7.63;;;17.30;99.90;;;;;;4413748;28;657608;-74
2024/03/04 11:26:25;;;;;;;12.03;7.30;;;17.30;99.90;;;;;;4426971;28;658517;-74
2024/03/04 11:29:13;;;;;;;12.63;6.23;;;17.20;99.90;;;;;;4409405;28;657531;-75
2024/03/04 11:32:00;;;;;;;16.17;7.10;;;17.10;99.90;;;;;;4429167;28;658854;-75
2024/03/04 11:35:05;;;;;;;13.70;7.90;;;16.80;99.90;;;;;;4402462;28;657600;-75
2024/03/04 11:38:04;;;;;;;15.40;8.23;;;16.40;99.90;;;;;;4376093;28;657963;-75
2024/03/04 11:40:56;;;;;;;12.30;7.33;;;16.10;99.90;;;;;;4403376;28;657414;-74
2024/03/04 11:43:44;;;;;;;20.13;9.00;;;15.80;99.90;;;;;;4372767;28;658529;-74
2024/03/04 11:46:33;;;;;;;26.00;11.80;;;15.70;99.90;;;;;;4425811;28;657432;-75
2024/03/04 11:49:27;;;;;;;23.17;13.20;;;15.60;1.00;;;;;;4405366;28;659160;-74
2024/03/04 11:52:20;;;;;;;53.87;21.63;;;15.60;1.00;;;;;;4401344;28;657954;-74
2024/03/04 11:55:09;;;;;;;26.33;14.03;;;15.70;1.00;;;;;;4393766;28;658110;-74
2024/03/04 11:57:56;;;;;;;30.90;14.47;;;15.60;1.00;;;;;;4430211;28;657824;-74
2024/03/04 12:00:44;;;;;;;29.00;14.33;;;15.40;1.00;;;;;;4402761;28;657605;-75
2024/03/04 12:03:31;;;;;;;31.00;15.27;;;15.20;1.00;;;;;;4425599;28;658426;-75
2024/03/04 12:06:18;;;;;;;28.40;14.50;;;15.20;1.00;;;;;;4402792;28;657726;-75
2024/03/04 12:09:06;;;;;;;30.37;14.93;;;15.10;1.00;;;;;;4423379;28;658059;-74
2024/03/04 12:11:55;;;;;;;26.40;13.67;;;14.90;1.00;;;;;;4409259;28;658028;-75
2024/03/04 12:14:43;;;;;;;28.05;13.77;;;14.80;1.00;;;;;;4412368;28;657486;-75
2024/03/04 12:17:31;;;;;;;29.90;14.40;;;14.70;1.00;;;;;;4425197;28;658559;-75
2024/03/04 12:20:18;;;;;;;41.77;16.20;;;14.60;1.00;;;;;;4409666;28;658446;-75
2024/03/04 12:23:06;;;;;;;69.37;22.20;;;14.70;1.00;;;;;;4441628;28;658279;-74
2024/03/04 12:25:53;;;;;;;32.20;13.53;;;14.70;1.00;;;;;;4409929;28;657455;-74
2024/03/04 12:28:41;;;;;;;25.70;11.07;;;14.70;1.00;;;;;;4428348;28;657924;-75
2024/03/04 12:31:29;;;;;;;21.97;10.77;;;14.60;1.00;;;;;;4400649;28;657654;-75
2024/03/04 12:34:17;;;;;;;101.67;25.93;;;14.50;1.00;;;;;;4424974;28;657564;-75
2024/03/04 12:37:04;;;;;;;24.40;11.77;;;14.60;1.00;;;;;;4397067;28;660342;-75
2024/03/04 12:39:52;;;;;;;19.97;10.23;;;14.50;1.00;;;;;;4426633;28;657448;-75
2024/03/04 12:42:39;;;;;;;17.10;9.27;;;14.50;1.00;;;;;;4401338;28;657661;-74
2024/03/04 12:45:28;;;;;;;21.93;10.20;;;14.50;1.00;;;;;;4427812;28;656416;-74
2024/03/04 12:48:17;;;;;;;22.20;10.60;;;14.40;1.00;;;;;;4402047;28;658839;-75
2024/03/04 12:51:05;;;;;;;26.60;11.10;;;14.50;1.00;;;;;;4395709;28;657747;-74
2024/03/04 12:53:53;;;;;;;31.97;11.97;;;14.50;1.00;;;;;;4399423;28;658142;-75
2024/03/04 12:56:40;;;;;;;20.87;10.40;;;14.50;1.00;;;;;;4398548;28;658890;-75
2024/03/04 12:59:28;;;;;;;19.83;10.20;;;14.50;1.00;;;;;;4393987;28;657609;-75
2024/03/04 13:02:17;;;;;;;27.03;10.53;;;14.50;1.00;;;;;;4404154;28;658589;-74
2024/03/04 13:05:05;;;;;;;23.87;12.47;;;14.50;1.00;;;;;;4391124;28;658475;-75
2024/03/04 13:07:52;;;;;;;19.77;10.10;;;14.40;1.00;;;;;;4413260;28;660777;-75
2024/03/04 13:10:40;;;;;;;24.63;10.23;;;14.50;1.00;;;;;;4421205;28;658086;-74
2024/03/04 13:13:27;;;;;;;27.67;11.87;;;14.40;1.00;;;;;;4425564;28;658303;-75
2024/03/04 13:16:15;;;;;;;43.23;16.10;;;14.50;1.00;;;;;;4425934;28;657495;-74
2024/03/04 13:19:04;;;;;;;26.60;11.90;;;14.50;1.00;;;;;;4427530;28;657975;-74
2024/03/04 13:21:51;;;;;;;20.80;11.93;;;14.60;1.00;;;;;;4425865;28;658209;-75
2024/03/04 13:24:39;;;;;;;60.80;18.97;;;14.60;1.00;;;;;;4411820;28;658846;-75
2024/03/04 13:27:26;;;;;;;33.77;14.13;;;14.40;1.00;;;;;;4423706;28;657739;-75
2024/03/04 13:30:14;;;;;;;23.07;12.80;;;14.40;1.00;;;;;;4405726;28;658262;-75
2024/03/04 13:33:01;;;;;;;29.60;15.80;;;14.20;1.00;;;;;;4421695;28;657231;-75
2024/03/04 13:35:51;;;;;;;32.43;16.40;;;14.20;82.00;;;;;;4407627;28;658480;-75
2024/03/04 13:38:38;;;;;;;33.40;18.00;;;14.10;99.90;;;;;;4404886;28;658246;-75
2024/03/04 13:41:25;;;;;;;28.47;15.93;;;14.00;99.90;;;;;;4431775;28;659253;-75
2024/03/04 13:44:13;;;;;;;33.13;15.00;;;14.00;1.00;;;;;;4395913;28;658677;-74
2024/03/04 13:47:00;;;;;;;25.80;14.90;;;14.00;99.90;;;;;;4429891;28;658342;-75
2024/03/04 13:49:48;;;;;;;27.83;14.63;;;14.00;99.90;;;;;;4403738;28;659425;-75
2024/03/04 13:52:37;;;;;;;38.37;16.20;;;14.10;99.90;;;;;;4406215;28;659083;-75
2024/03/04 13:55:25;;;;;;;30.77;15.93;;;14.10;99.90;;;;;;4388963;28;658274;-75
2024/03/04 13:58:12;;;;;;;30.40;15.93;;;14.20;99.90;;;;;;4396466;28;658594;-75
2024/03/04 14:01:00;;;;;;;39.57;17.50;;;14.20;99.90;;;;;;4429283;28;659356;-75
2024/03/04 14:03:48;;;;;;;61.57;24.43;;;14.30;99.90;;;;;;4411868;28;658435;-75
2024/03/04 14:06:35;;;;;;;96.53;32.83;;;14.40;99.90;;;;;;4407157;28;659921;-75
2024/03/04 14:09:24;;;;;;;57.00;25.53;;;14.40;99.90;;;;;;4394980;28;659178;-75
2024/03/04 14:12:11;;;;;;;102.43;36.27;;;14.30;1.00;;;;;;4420949;28;658274;-75